Airfield :
LOGIN :

Register | Disclaimer

   EN    FR    IT 

 










Legend :    VFR   Marginal VFR   IFR   Intensive IFR   Very Intensive IFR
Visi :
Ceiling :
>= 8 km
>= 3000ft
5 to 8 km
1000 to 3000 ft
1500m to 5 km
500 to 1000 ft
800 to 1500m
200 to 500 ft
< 800m
< 200 ft
Symbols :   Thunderstorms  Fog  Heavy snow  Heavy precipitations  Wind > 20 kt
SIGMETs :     Misc.  Thunderstorms  Icing  Turbulence  Mountain Waves  Volcanic Ashes







- Airport Elevation : 38 ft
- IATA code : BOH
- Download approach charts


EGHH - Bournemouth

EXPIRED METARs :
  • 202250Z 20016G29KT 7000 RA BKN008 15/14 Q1002
  • 202220Z 19017G29KT 9999 RA BKN005 15/14 Q1003

TAF TAF EGHH
Valid from the 21 at 00:00 until the 21 at 09:00 UTC


202303Z 2100/2109 19018G28KT 6000 RA BKN006
BECMG 2100/2102 23015KT 9999 NSW FEW020
PROB30
TEMPO 2102/2109 23022G35KT 7000 SHRA
ATIS : +44 1202 364 151
Met : +44 1202 364 158 (TAF)
No reported NOTAMs for that airfield.
1 SIGMET reported for the London FIR (EGTT) :
 
Severe turbulence
EGTT SIGMET 08 VALID 202200/210200 EGRR
EGTT LONDON FIR SEV TURB FCST W OF LINE N5132 W00700 - N4902 W00700 SFC/FL060 MOV E 20KT INTSF=



MET'MAP, your aeronautical weather chart ! - Copyright ORBIFLY December 2007 - Disclaimer

ORBIFLY MET'MAP TEAM :

Programming & Development : Alexandra Zaïnal
Concept & Development : Baudouin d'Aumeries
Co-Development & Prog : Marc-Olivier Méhu
Technical & hardware support : Manuel Goepfert

Contact : metmap@orbifly.com




SOURCES & CREDITS :

   NOAA